Decoded Metar for KSYR (SYRACUSE in NY, USA) (IATA:SYR) | Meteo·Mobile Aviation Weather
aviador You're here:

KSYR Decoded Metar

SYRACUSE in NY, USA
Report Time2019-07-22 16:10:00
UTC Time2019-07-22 16:23:44
Flight Rules mvfr MVFR
Wind080° at 03 kt
W.Decomp.*RWY 10: 3.0 kt HW 0.4 kt LCW
RWY 15: 1.6 kt HW 2.5 kt LCW
Visibility4828 m
Phenomena:Heavy Rain
Clouds:Scattered 007 Hf
Broken 045 Hf
Overcast 065 Hf
Expected CloudBase > 400 ft AGL from Temp-Dew spread
Ceiling4,500 ft
Temp19°C (ISA +5)
Dew Point18°C (94% RH)
QNH1013 hPa
Density Alt1,257 ft
Elevation417 ft
Report Wrong Elevation
Raw Report
SPECI KSYR 221610Z 08003KT 3SM +RA BR SCT007 BKN045 OVC065 19/18 A2990
RMK AO2 P0009 T01940178=

Extra information for KSYR:More info

Metar Taf Metar & Taf Last 4 Metars F.Rules Stats Wind Profile Meteogram Temp Stats Airport Information Weather charts Add Link Nearby VenuesMetar ALERT Operation Metar Decoded Social comments

AIRNAV info for KSYR